createdAt,value
2023-02-16T00:01:26.364Z,54.55
2023-02-16T00:03:56.945Z,54.46
2023-02-16T00:06:25.953Z,54.64
2023-02-16T00:08:55.409Z,54.83
2023-02-16T00:11:45.365Z,54.97
2023-02-16T00:14:14.374Z,54.77
2023-02-16T00:16:42.869Z,54.58
2023-02-16T00:19:19.052Z,54.36
2023-02-16T00:21:47.503Z,54.49
2023-02-16T00:24:15.639Z,54.59
2023-02-16T00:26:44.218Z,54.46
2023-02-16T00:29:18.021Z,54.31
2023-02-16T00:31:46.382Z,54.20
2023-02-16T00:34:28.102Z,54.18
2023-02-16T00:36:57.470Z,54.30
2023-02-16T00:39:26.371Z,54.22
2023-02-16T00:41:56.528Z,54.55
2023-02-16T00:44:34.068Z,54.54
2023-02-16T00:47:12.814Z,54.76
2023-02-16T00:49:43.217Z,54.78
2023-02-16T00:52:28.616Z,54.65
2023-02-16T00:54:56.786Z,54.71
2023-02-16T00:57:25.676Z,54.57
2023-02-16T00:59:59.504Z,54.81
2023-02-16T01:02:27.661Z,54.58
2023-02-16T01:04:58.220Z,54.59
2023-02-16T01:07:43.673Z,54.78
2023-02-16T01:10:30.813Z,54.45
2023-02-16T01:12:59.336Z,54.52
2023-02-16T01:15:28.500Z,54.34
2023-02-16T01:17:56.781Z,54.06
2023-02-16T01:20:28.296Z,54.36
2023-02-16T01:22:56.388Z,54.18
2023-02-16T01:25:25.004Z,54.33
2023-02-16T01:27:54.339Z,54.21
2023-02-16T01:30:24.413Z,53.96
2023-02-16T01:32:53.267Z,54.02
2023-02-16T01:35:22.059Z,54.02
2023-02-16T01:37:52.420Z,54.03
2023-02-16T01:40:35.524Z,53.68
2023-02-16T01:43:07.981Z,53.53
2023-02-16T01:45:38.953Z,53.85
2023-02-16T01:48:13.850Z,53.92
2023-02-16T01:50:49.874Z,54.52
2023-02-16T01:53:25.180Z,54.01
2023-02-16T01:55:57.941Z,53.90
2023-02-16T01:58:34.935Z,54.13
2023-02-16T02:01:58.976Z,53.73
2023-02-16T02:04:52.479Z,53.69
2023-02-16T02:07:27.787Z,54.42
2023-02-16T02:10:07.176Z,54.01
2023-02-16T02:12:41.817Z,53.92
2023-02-16T02:15:12.237Z,54.19
2023-02-16T02:17:40.312Z,54.41
2023-02-16T02:20:17.358Z,53.86
2023-02-16T02:23:33.763Z,53.72
2023-02-16T02:26:46.665Z,54.01
2023-02-16T02:29:28.839Z,54.04
2023-02-16T02:32:07.205Z,54.05
2023-02-16T02:34:53.649Z,53.81
2023-02-16T02:37:27.710Z,54.09
2023-02-16T02:40:06.209Z,54.05
2023-02-16T02:42:45.299Z,54.24
2023-02-16T02:45:18.123Z,54.65
2023-02-16T02:47:48.170Z,54.86
2023-02-16T02:51:03.555Z,55.17
2023-02-16T02:53:32.730Z,55.11
2023-02-16T02:56:35.989Z,54.88
2023-02-16T02:59:46.217Z,54.84
2023-02-16T03:02:15.615Z,54.98
2023-02-16T03:04:45.823Z,55.19
2023-02-16T03:07:16.230Z,55.91
2023-02-16T03:09:44.834Z,56.09
2023-02-16T03:12:31.712Z,56.13
2023-02-16T03:15:03.870Z,56.19
2023-02-16T03:17:53.706Z,56.01
2023-02-16T03:20:39.875Z,56.36
2023-02-16T03:23:27.237Z,56.03
2023-02-16T03:26:13.521Z,55.78
2023-02-16T03:29:02.604Z,56.30
2023-02-16T03:31:35.725Z,55.97
2023-02-16T03:34:04.358Z,56.13
2023-02-16T03:36:35.724Z,56.24
2023-02-16T03:39:06.069Z,56.66
2023-02-16T03:41:36.082Z,56.59
2023-02-16T03:44:04.143Z,56.70
2023-02-16T03:46:34.053Z,56.25
2023-02-16T03:49:02.200Z,56.39
2023-02-16T03:51:30.229Z,56.74
2023-02-16T03:53:58.271Z,56.60
2023-02-16T03:56:26.388Z,56.55
2023-02-16T03:58:54.635Z,56.75
2023-02-16T04:01:22.692Z,56.50
2023-02-16T04:03:52.200Z,56.39
2023-02-16T04:06:20.264Z,56.35
2023-02-16T04:08:48.300Z,56.34
2023-02-16T04:11:34.010Z,56.36
2023-02-16T04:14:03.087Z,56.32
2023-02-16T04:16:31.143Z,56.39
2023-02-16T04:19:00.564Z,56.17
2023-02-16T04:21:28.681Z,56.09
2023-02-16T04:23:56.702Z,55.78
2023-02-16T04:26:24.790Z,55.87
2023-02-16T04:28:52.913Z,55.95
2023-02-16T04:31:20.996Z,55.54
2023-02-16T04:33:49.154Z,55.51
2023-02-16T04:36:18.525Z,55.37
2023-02-16T04:38:46.587Z,55.23
2023-02-16T04:41:14.576Z,55.54
2023-02-16T04:43:42.637Z,55.25
2023-02-16T04:46:10.688Z,55.29
2023-02-16T04:48:38.752Z,54.96
2023-02-16T04:51:07.334Z,55.13
2023-02-16T04:53:36.757Z,55.26
2023-02-16T04:56:05.284Z,55.42
2023-02-16T04:58:33.287Z,55.42
2023-02-16T05:01:01.457Z,55.39
2023-02-16T05:03:29.730Z,55.06
2023-02-16T05:05:57.933Z,54.88
2023-02-16T05:08:25.941Z,55.16
2023-02-16T05:11:09.235Z,54.98
2023-02-16T05:13:54.569Z,54.75
2023-02-16T05:16:23.247Z,54.90
2023-02-16T05:18:51.321Z,54.70
2023-02-16T05:21:31.791Z,54.71
2023-02-16T05:24:00.329Z,55.08
2023-02-16T05:26:30.100Z,55.18
2023-02-16T05:28:58.838Z,55.10
2023-02-16T05:31:27.995Z,55.00
2023-02-16T05:33:56.557Z,55.21
2023-02-16T05:36:25.129Z,55.27
2023-02-16T05:38:53.179Z,55.05
2023-02-16T05:41:24.466Z,54.93
2023-02-16T05:43:55.841Z,55.00
2023-02-16T05:46:24.895Z,55.33
2023-02-16T05:48:53.208Z,55.42
2023-02-16T05:51:21.964Z,55.45
2023-02-16T05:53:50.019Z,55.55
2023-02-16T05:56:18.165Z,55.67
2023-02-16T05:58:46.393Z,55.65
2023-02-16T06:01:16.116Z,55.69
2023-02-16T06:03:44.491Z,55.68
2023-02-16T06:06:13.313Z,55.57
2023-02-16T06:08:41.600Z,55.68
2023-02-16T06:11:30.285Z,55.73
2023-02-16T06:13:59.596Z,55.83
2023-02-16T06:16:30.069Z,55.57
2023-02-16T06:18:59.792Z,55.85
2023-02-16T06:21:28.666Z,55.77
2023-02-16T06:23:56.892Z,55.81
2023-02-16T06:26:25.184Z,55.88
2023-02-16T06:28:53.646Z,56.16
2023-02-16T06:31:22.532Z,56.10
2023-02-16T06:33:52.458Z,56.09
2023-02-16T06:36:21.386Z,56.10
2023-02-16T06:38:49.572Z,56.32
2023-02-16T06:41:31.290Z,56.43
2023-02-16T06:44:00.726Z,56.18
2023-02-16T06:46:28.900Z,56.20
2023-02-16T06:48:58.676Z,56.16
2023-02-16T06:51:27.252Z,56.10
2023-02-16T06:53:55.436Z,56.07
2023-02-16T06:56:23.922Z,56.45
2023-02-16T06:58:52.176Z,56.10
2023-02-16T07:01:23.221Z,56.04
2023-02-16T07:03:51.702Z,56.07
2023-02-16T07:06:21.828Z,56.14
2023-02-16T07:08:49.821Z,56.21
2023-02-16T07:11:19.320Z,56.15
2023-02-16T07:13:47.875Z,56.19
2023-02-16T07:16:16.606Z,56.35
2023-02-16T07:18:45.089Z,56.33
2023-02-16T07:21:13.380Z,56.77
2023-02-16T07:23:42.794Z,56.58
2023-02-16T07:26:11.152Z,56.34
2023-02-16T07:28:39.265Z,56.77
2023-02-16T07:31:09.214Z,56.89
2023-02-16T07:33:37.304Z,57.16
2023-02-16T07:36:06.125Z,56.90
2023-02-16T07:38:34.519Z,56.55
2023-02-16T07:41:07.876Z,56.77
2023-02-16T07:43:37.486Z,56.73
2023-02-16T07:46:06.268Z,56.58
2023-02-16T07:48:34.371Z,56.89
2023-02-16T07:51:03.026Z,56.50
2023-02-16T07:53:31.383Z,57.20
2023-02-16T07:55:59.462Z,56.53
2023-02-16T07:58:28.975Z,56.78
2023-02-16T08:00:58.351Z,56.80
2023-02-16T08:03:26.536Z,57.41
2023-02-16T08:05:54.737Z,58.03
2023-02-16T08:08:22.772Z,58.12
2023-02-16T08:10:50.847Z,58.07
2023-02-16T08:13:18.867Z,57.81
2023-02-16T08:15:48.287Z,57.78
2023-02-16T08:18:16.357Z,57.53
2023-02-16T08:21:02.852Z,57.40
2023-02-16T08:23:32.200Z,57.06
2023-02-16T08:26:00.274Z,57.35
2023-02-16T08:28:29.591Z,57.21
2023-02-16T08:31:04.445Z,56.89
2023-02-16T08:33:33.160Z,56.78
2023-02-16T08:36:01.177Z,56.99
2023-02-16T08:38:29.200Z,57.00
2023-02-16T08:41:00.680Z,56.72
2023-02-16T08:43:28.737Z,56.61
2023-02-16T08:45:58.105Z,56.53
2023-02-16T08:48:28.840Z,56.09
2023-02-16T08:50:56.845Z,55.74
2023-02-16T08:53:27.928Z,55.83
2023-02-16T08:55:56.949Z,56.04
2023-02-16T08:58:25.578Z,55.99
2023-02-16T09:00:54.443Z,55.72
2023-02-16T09:03:24.654Z,56.01
2023-02-16T09:05:55.192Z,55.81
2023-02-16T09:08:23.352Z,55.92
2023-02-16T09:10:51.742Z,56.18
2023-02-16T09:13:19.775Z,56.05
2023-02-16T09:15:48.455Z,56.25
2023-02-16T09:18:16.618Z,56.09
2023-02-16T09:20:47.122Z,56.07
2023-02-16T09:23:15.327Z,56.48
2023-02-16T09:25:43.448Z,56.38
2023-02-16T09:28:12.225Z,56.18
2023-02-16T09:30:40.829Z,56.42
2023-02-16T09:33:08.930Z,56.29
2023-02-16T09:35:39.799Z,55.87
2023-02-16T09:38:10.878Z,56.13
2023-02-16T09:40:39.080Z,56.17
2023-02-16T09:43:16.339Z,56.07
2023-02-16T09:45:48.614Z,56.16
2023-02-16T09:48:25.568Z,55.83
2023-02-16T09:50:55.622Z,56.08
2023-02-16T09:53:33.736Z,56.10
2023-02-16T09:56:09.888Z,56.17
2023-02-16T09:58:43.704Z,56.16
2023-02-16T10:01:21.522Z,56.41
2023-02-16T10:03:59.743Z,56.33
2023-02-16T10:06:43.001Z,56.50
2023-02-16T10:09:16.507Z,56.37
2023-02-16T10:11:49.062Z,56.29
2023-02-16T10:14:30.805Z,56.00
2023-02-16T10:17:07.893Z,55.85
2023-02-16T10:19:42.237Z,55.91
2023-02-16T10:22:17.665Z,55.90
2023-02-16T10:24:54.089Z,56.13
2023-02-16T10:27:23.378Z,56.39
2023-02-16T10:29:51.734Z,56.55
2023-02-16T10:32:30.695Z,56.74
2023-02-16T10:35:12.135Z,56.47
2023-02-16T10:37:56.910Z,56.61
2023-02-16T10:40:34.421Z,56.92
2023-02-16T10:43:11.451Z,56.84
2023-02-16T10:45:51.999Z,56.93
2023-02-16T10:48:21.758Z,57.18
2023-02-16T10:50:58.718Z,57.06
2023-02-16T10:53:37.807Z,57.01
2023-02-16T10:56:26.174Z,57.48
2023-02-16T10:58:54.973Z,57.67
2023-02-16T11:01:32.875Z,57.59
2023-02-16T11:04:01.250Z,58.20
2023-02-16T11:06:29.811Z,57.84
2023-02-16T11:09:01.246Z,57.74
2023-02-16T11:11:38.397Z,58.40
2023-02-16T11:14:10.058Z,58.29
2023-02-16T11:16:38.513Z,58.16
2023-02-16T11:19:09.961Z,58.36
2023-02-16T11:21:47.417Z,58.64
2023-02-16T11:24:26.200Z,58.58
2023-02-16T11:27:05.409Z,58.57
2023-02-16T11:29:34.868Z,58.87
2023-02-16T11:32:08.879Z,58.74
2023-02-16T11:34:41.306Z,59.01
2023-02-16T11:37:17.026Z,59.20
2023-02-16T11:39:51.744Z,59.54
2023-02-16T11:42:29.637Z,59.67
2023-02-16T11:44:59.301Z,60.19
2023-02-16T11:47:31.513Z,60.45
2023-02-16T11:50:20.314Z,60.05
2023-02-16T11:52:50.020Z,60.68
2023-02-16T11:55:26.949Z,60.34
2023-02-16T11:57:57.360Z,60.54
2023-02-16T12:00:28.061Z,60.70
2023-02-16T12:03:19.138Z,60.73
2023-02-16T12:06:12.855Z,61.47
2023-02-16T12:08:58.202Z,61.47
2023-02-16T12:11:34.146Z,61.42
2023-02-16T12:14:19.920Z,61.05
2023-02-16T12:16:55.911Z,60.89
2023-02-16T12:19:34.778Z,60.75
2023-02-16T12:22:16.617Z,60.61
2023-02-16T12:24:52.485Z,60.54
2023-02-16T12:27:27.308Z,61.05
2023-02-16T12:30:02.878Z,61.19
2023-02-16T12:32:49.690Z,61.32
2023-02-16T12:35:33.526Z,60.86
2023-02-16T12:38:10.690Z,61.49
2023-02-16T12:40:52.063Z,61.47
2023-02-16T12:43:32.345Z,61.28
2023-02-16T12:46:07.747Z,60.95
2023-02-16T12:48:42.734Z,60.99
2023-02-16T12:51:15.266Z,61.14
2023-02-16T12:53:49.188Z,61.21
2023-02-16T12:56:22.317Z,61.05
2023-02-16T12:58:55.554Z,61.05
2023-02-16T13:01:28.815Z,61.00
2023-02-16T13:04:01.042Z,61.18
2023-02-16T13:06:33.967Z,60.77
2023-02-16T13:09:15.275Z,60.59
2023-02-16T13:11:51.096Z,61.05
2023-02-16T13:14:24.603Z,61.46
2023-02-16T13:16:58.063Z,61.23
2023-02-16T13:19:27.076Z,61.15
2023-02-16T13:22:24.302Z,60.67
2023-02-16T13:25:17.339Z,60.34
2023-02-16T13:27:54.955Z,59.94
2023-02-16T13:30:43.109Z,60.12
2023-02-16T13:33:37.801Z,60.31
2023-02-16T13:36:28.217Z,61.02
2023-02-16T13:39:24.150Z,61.51
2023-02-16T13:42:06.563Z,60.93
2023-02-16T13:44:40.184Z,60.88
2023-02-16T13:47:12.855Z,60.89
2023-02-16T13:49:44.101Z,60.90
2023-02-16T13:52:27.629Z,61.02
2023-02-16T13:54:56.065Z,61.16
2023-02-16T13:58:00.298Z,60.82
2023-02-16T14:00:31.429Z,60.67
2023-02-16T14:03:02.210Z,60.45
2023-02-16T14:05:35.366Z,60.22
2023-02-16T14:08:22.286Z,59.92
2023-02-16T14:11:11.529Z,59.05
2023-02-16T14:13:51.681Z,58.68
2023-02-16T14:16:32.932Z,58.41
2023-02-16T14:19:04.373Z,58.71
2023-02-16T14:21:39.935Z,58.99
2023-02-16T14:24:13.841Z,58.93
2023-02-16T14:26:59.376Z,59.13
2023-02-16T14:29:31.540Z,59.23
2023-02-16T14:32:05.190Z,59.16
2023-02-16T14:34:39.125Z,58.47
2023-02-16T14:37:32.969Z,58.27
2023-02-16T14:40:23.755Z,58.22
2023-02-16T14:42:58.351Z,58.32
2023-02-16T14:46:06.508Z,57.85
2023-02-16T14:49:07.795Z,58.40
2023-02-16T14:51:59.849Z,58.78
2023-02-16T14:54:58.275Z,58.63
2023-02-16T14:57:34.475Z,58.38
2023-02-16T15:00:08.535Z,58.22
2023-02-16T15:02:39.814Z,58.28
2023-02-16T15:05:20.180Z,58.23
2023-02-16T15:07:50.871Z,58.25
2023-02-16T15:10:26.821Z,58.27
2023-02-16T15:12:56.567Z,58.41
2023-02-16T15:15:31.462Z,58.22
2023-02-16T15:18:00.251Z,58.05
2023-02-16T15:20:33.314Z,58.08
2023-02-16T15:23:04.646Z,57.94
2023-02-16T15:25:38.525Z,57.84
2023-02-16T15:28:22.032Z,57.83
2023-02-16T15:30:53.820Z,58.10
2023-02-16T15:33:33.740Z,58.00
2023-02-16T15:36:04.998Z,58.24
2023-02-16T15:38:35.181Z,58.05
2023-02-16T15:41:08.056Z,58.15
2023-02-16T15:43:40.202Z,58.48
2023-02-16T15:46:14.993Z,58.80
2023-02-16T15:48:43.347Z,58.62
2023-02-16T15:51:17.516Z,58.41
2023-02-16T15:53:51.511Z,58.28
2023-02-16T15:56:36.121Z,58.22
2023-02-16T15:59:13.390Z,58.24
2023-02-16T16:01:41.820Z,58.45
2023-02-16T16:04:22.958Z,58.24
2023-02-16T16:06:52.321Z,58.65
2023-02-16T16:09:25.582Z,58.90
2023-02-16T16:12:00.991Z,58.90
2023-02-16T16:14:32.275Z,58.75
2023-02-16T16:17:01.157Z,58.87
2023-02-16T16:19:35.198Z,58.80
2023-02-16T16:22:05.547Z,59.22
2023-02-16T16:24:38.998Z,59.48
2023-02-16T16:27:11.062Z,59.80
2023-02-16T16:29:42.538Z,60.30
2023-02-16T16:32:21.421Z,59.92
2023-02-16T16:34:50.695Z,60.39
2023-02-16T16:37:28.918Z,60.60
2023-02-16T16:40:06.754Z,61.08
2023-02-16T16:42:39.390Z,61.68
2023-02-16T16:45:29.282Z,61.71
2023-02-16T16:48:01.759Z,61.68
2023-02-16T16:50:32.650Z,61.73
2023-02-16T16:53:01.503Z,61.87
2023-02-16T16:55:32.923Z,62.38
2023-02-16T16:58:05.635Z,62.07
2023-02-16T17:00:36.833Z,62.13
2023-02-16T17:03:07.947Z,62.35
2023-02-16T17:05:38.440Z,62.67
2023-02-16T17:08:07.648Z,62.89
2023-02-16T17:10:37.076Z,62.83
2023-02-16T17:13:07.681Z,63.02
2023-02-16T17:15:40.551Z,63.20
2023-02-16T17:18:14.529Z,63.40
2023-02-16T17:20:43.060Z,63.40
2023-02-16T17:23:12.856Z,63.41
2023-02-16T17:25:42.536Z,64.08
2023-02-16T17:28:13.148Z,63.79
2023-02-16T17:30:41.896Z,64.05
2023-02-16T17:33:11.283Z,63.78
2023-02-16T17:35:41.766Z,63.84
2023-02-16T17:38:11.824Z,63.82
2023-02-16T17:40:41.519Z,64.34
2023-02-16T17:43:15.731Z,64.14
2023-02-16T17:45:44.524Z,64.85
2023-02-16T17:48:17.403Z,64.49
2023-02-16T17:50:46.113Z,64.57
2023-02-16T17:53:15.894Z,64.51
2023-02-16T17:55:44.979Z,64.43
2023-02-16T17:58:15.157Z,64.81
2023-02-16T18:00:44.931Z,65.09
2023-02-16T18:03:13.479Z,64.59
2023-02-16T18:05:42.135Z,64.71
2023-02-16T18:08:13.168Z,64.33
2023-02-16T18:10:51.024Z,64.59
2023-02-16T18:13:21.319Z,64.59
2023-02-16T18:15:50.641Z,64.42
2023-02-16T18:18:19.896Z,64.92
2023-02-16T18:20:48.713Z,65.10
2023-02-16T18:23:17.595Z,65.05
2023-02-16T18:25:45.871Z,64.82
2023-02-16T18:28:18.510Z,65.27
2023-02-16T18:30:50.622Z,65.08
2023-02-16T18:33:21.134Z,65.21
2023-02-16T18:35:50.243Z,65.11
2023-02-16T18:38:21.352Z,64.86
2023-02-16T18:40:50.973Z,64.72
2023-02-16T18:43:20.199Z,64.58
2023-02-16T18:45:50.743Z,64.50
2023-02-16T18:48:20.195Z,64.64
2023-02-16T18:50:48.790Z,64.68
2023-02-16T18:53:16.952Z,64.74
2023-02-16T18:55:45.317Z,64.95
2023-02-16T18:58:15.902Z,65.22
2023-02-16T19:00:44.334Z,64.87
2023-02-16T19:03:14.079Z,64.79
2023-02-16T19:05:42.664Z,65.11
2023-02-16T19:08:10.896Z,64.97
2023-02-16T19:10:39.324Z,65.40
2023-02-16T19:13:07.586Z,65.33
2023-02-16T19:15:36.371Z,65.67
2023-02-16T19:18:05.061Z,65.43
2023-02-16T19:20:35.464Z,65.66
2023-02-16T19:23:03.771Z,65.66
2023-02-16T19:25:31.990Z,65.81
2023-02-16T19:28:00.277Z,66.08
2023-02-16T19:30:28.747Z,65.76
2023-02-16T19:32:57.358Z,66.24
2023-02-16T19:35:25.668Z,65.95
2023-02-16T19:37:55.942Z,65.87
2023-02-16T19:40:24.252Z,65.77
2023-02-16T19:42:52.611Z,65.94
2023-02-16T19:45:21.164Z,65.88
2023-02-16T19:47:52.122Z,66.33
2023-02-16T19:50:20.530Z,66.50
2023-02-16T19:52:48.777Z,66.58
2023-02-16T19:55:18.608Z,66.89
2023-02-16T19:57:46.887Z,66.15
2023-02-16T20:00:15.879Z,66.86
2023-02-16T20:02:44.248Z,66.63
2023-02-16T20:05:13.614Z,66.40
2023-02-16T20:07:42.100Z,66.10
2023-02-16T20:10:10.741Z,65.90
2023-02-16T20:12:40.521Z,66.20
2023-02-16T20:15:09.726Z,66.33
2023-02-16T20:17:37.969Z,66.31
2023-02-16T20:20:07.550Z,66.14
2023-02-16T20:22:36.157Z,66.01
2023-02-16T20:25:04.471Z,65.56
2023-02-16T20:27:32.749Z,66.09
2023-02-16T20:30:02.961Z,65.91
2023-02-16T20:32:31.578Z,65.59
2023-02-16T20:35:00.340Z,65.74
2023-02-16T20:37:28.780Z,65.63
2023-02-16T20:39:57.414Z,65.53
2023-02-16T20:42:25.807Z,65.82
2023-02-16T20:44:54.114Z,65.81
2023-02-16T20:47:23.773Z,65.93
2023-02-16T20:49:52.091Z,65.66
2023-02-16T20:52:20.396Z,65.78
2023-02-16T20:54:48.816Z,65.46
2023-02-16T20:57:26.419Z,65.44
2023-02-16T20:59:55.768Z,65.69
2023-02-16T21:02:25.440Z,65.85
2023-02-16T21:04:53.817Z,65.65
2023-02-16T21:07:22.112Z,65.90
2023-02-16T21:09:50.339Z,65.69
2023-02-16T21:12:18.593Z,65.87
2023-02-16T21:14:46.891Z,65.77
2023-02-16T21:17:15.584Z,65.69
2023-02-16T21:19:45.531Z,65.62
2023-02-16T21:22:13.814Z,65.67
2023-02-16T21:24:43.388Z,65.66
2023-02-16T21:27:11.875Z,65.39
2023-02-16T21:29:40.288Z,65.38
2023-02-16T21:32:08.685Z,65.17
2023-02-16T21:34:37.157Z,65.11
2023-02-16T21:37:07.010Z,64.95
2023-02-16T21:39:52.847Z,65.03
2023-02-16T21:42:21.121Z,65.25
2023-02-16T21:45:09.732Z,65.33
2023-02-16T21:47:55.580Z,65.24
2023-02-16T21:50:24.068Z,64.87
2023-02-16T21:52:54.216Z,64.85
2023-02-16T21:55:40.631Z,65.20
2023-02-16T21:58:10.835Z,64.90
2023-02-16T22:00:39.343Z,64.90
2023-02-16T22:03:08.458Z,65.10
2023-02-16T22:05:37.408Z,64.81
2023-02-16T22:08:07.693Z,64.76
2023-02-16T22:10:36.268Z,64.85
2023-02-16T22:13:05.201Z,64.88
2023-02-16T22:15:36.240Z,65.19
2023-02-16T22:18:04.694Z,65.00
2023-02-16T22:20:33.278Z,65.09
2023-02-16T22:23:01.565Z,65.14
2023-02-16T22:25:31.315Z,65.60
2023-02-16T22:27:59.665Z,65.75
2023-02-16T22:30:28.037Z,65.68
2023-02-16T22:32:56.421Z,66.20
2023-02-16T22:35:24.752Z,66.14
2023-02-16T22:37:53.081Z,66.01
2023-02-16T22:40:21.587Z,66.16
2023-02-16T22:42:51.278Z,66.33
2023-02-16T22:45:19.746Z,66.24
2023-02-16T22:47:48.063Z,66.14
2023-02-16T22:50:16.342Z,66.10
2023-02-16T22:52:44.709Z,66.09
2023-02-16T22:55:12.999Z,66.34
2023-02-16T22:57:41.319Z,66.01
2023-02-16T23:00:15.242Z,66.30
2023-02-16T23:02:43.585Z,66.19
2023-02-16T23:05:11.869Z,66.10
2023-02-16T23:07:40.140Z,65.65
2023-02-16T23:10:09.119Z,65.24
2023-02-16T23:12:37.460Z,65.01
2023-02-16T23:15:06.243Z,65.11
2023-02-16T23:17:36.444Z,65.25
2023-02-16T23:20:05.485Z,65.31
2023-02-16T23:22:33.800Z,65.06
2023-02-16T23:25:19.200Z,64.96
2023-02-16T23:27:47.550Z,65.16
2023-02-16T23:30:15.974Z,65.11
2023-02-16T23:32:45.767Z,64.93
2023-02-16T23:35:14.161Z,64.79
2023-02-16T23:37:42.448Z,64.51
2023-02-16T23:40:11.717Z,64.59
2023-02-16T23:42:40.215Z,64.76
2023-02-16T23:45:09.317Z,64.75
2023-02-16T23:47:37.591Z,64.79
2023-02-16T23:50:08.458Z,64.82
2023-02-16T23:52:36.787Z,65.29
2023-02-16T23:55:05.456Z,65.72
2023-02-16T23:57:33.711Z,65.26
